Flight Track Log - Related Links

Times and Time Zones

All times are in EDT time to prevent confusion due to time zone crossing. See the DAL907 flight status page for this flight to view local times or setup timezone preferences in your user account.

Time Position Orientation Groundspeed Altitude Reporting Facility
EDT Latitude Longitude Course Direction KTS MPH feet Rate Location/Type
Wed 05:17:15 PM 36.1500 -86.6500 167° South 162 186 1,600  Level Nashville TRACON
Wed 05:18:39 PM 36.1500 -86.5500 90° East 279 321 3,700 1,087 Climbing Nashville TRACON
Wed 05:19:33 PM 36.1000 -86.4833 133° Southeast 295 339 4,100 1,421 Climbing Nashville TRACON
Wed 05:20:00 PM 35.8157 -86.3893 152° Southeast  Level Estimated
Wed 05:20:33 PM 36.0333 -86.4833 180° South 293 337 6,400  Level Nashville TRACON
Wed 05:21:00 PM 35.7384 -86.3174 169° South  Level Estimated
Wed 05:21:08 PM 35.9839 -86.5042 199° South 278 320 8,100  Level Memphis Center
Wed 05:22:00 PM 35.6611 -86.2456 167° South  Level Estimated
Wed 05:22:08 PM 35.9097 -86.5333 198° South 304 350 10,400  Level Memphis Center
Wed 05:23:08 PM 35.8239 -86.5142 170° South 318 366 12,000 1,750 Climbing Memphis Center
Wed 05:24:08 PM 35.7325 -86.4622 155° Southeast 320 368 13,900 1,450 Climbing Memphis Center
Wed 05:25:08 PM 35.6533 -86.3969 146° Southeast 370 426 14,900 1,250 Climbing Memphis Center
Wed 05:26:08 PM 35.5567 -86.3097 144° Southeast 408 470 16,400 1,814 Climbing Memphis Center
Wed 05:26:34 PM 35.5042 -86.2658 146° Southeast 420 483 17,500 1,953 Climbing Atlanta Center
Wed 05:27:34 PM 35.3839 -86.2294 166° South 430 495 19,200 1,650 Climbing Atlanta Center
Wed 05:28:34 PM 35.2567 -86.2261 179° South 451 519 20,800 2,000 Climbing Atlanta Center
Wed 05:29:34 PM 35.1336 -86.2203 178° South 458 527 23,200 1,600 Climbing Atlanta Center
Wed 05:30:34 PM 35.0167 -86.2172 179° South 446 513 24,000 400 Climbing Atlanta Center
Wed 05:31:34 PM 34.9406 -86.1647 151° Southeast 408 470 24,000  Level Atlanta Center
Wed 05:32:34 PM 34.8547 -86.0486 132° Southeast 375 432 24,000  Level Atlanta Center
Wed 05:33:34 PM 34.7772 -85.9431 132° Southeast 390 449 24,000  Level Atlanta Center
Wed 05:34:34 PM 34.6994 -85.8325 131° Southeast 412 474 24,000  Level Atlanta Center
Wed 05:35:34 PM 34.6236 -85.7375 134° Southeast 423 487 24,000  Level Atlanta Center
Wed 05:36:34 PM 34.5417 -85.6275 132° Southeast 434 499 24,000 -450 Level Atlanta Center
Wed 05:37:34 PM 34.4594 -85.5203 133° Southeast 434 499 23,100 -1,600 Descending Atlanta Center
Wed 05:38:34 PM 34.3733 -85.4003 131° Southeast 429 494 20,800 -2,200 Descending Atlanta Center
Wed 05:39:34 PM 34.2992 -85.3011 132° Southeast 417 480 18,700 -2,100 Descending Atlanta Center
Wed 05:40:34 PM 34.2269 -85.2044 132° Southeast 398 458 16,600 -2,150 Descending Atlanta Center
Wed 05:41:34 PM 34.1528 -85.1081 133° Southeast 392 451 14,400 -1,300 Descending Atlanta Center
Wed 05:42:34 PM 34.0908 -85.0297 134° Southeast 383 441 14,000 -600 Descending Atlanta Center
Wed 05:43:34 PM 34.0186 -84.9361 133° Southeast 378 435 13,200 -1,150 Descending Atlanta Center
Wed 05:44:34 PM 33.9522 -84.8503 133° Southeast 371 427 11,700 -1,100 Descending Atlanta Center
Wed 05:45:34 PM 33.8903 -84.7719 134° Southeast 335 386 11,000 -512 Descending Atlanta Center
Wed 05:45:56 PM 33.8667 -84.7333 126° Southeast 306 352 11,000  Level Atlanta TRACON
Wed 05:46:56 PM 33.8000 -84.6667 140° Southeast 272 313 11,000  Level Atlanta TRACON
Wed 05:47:56 PM 33.7500 -84.6000 132° Southeast 261 300 11,000 50 Level Atlanta TRACON
Wed 05:48:56 PM 33.7333 -84.5167 104° East 260 299 11,100 -1,250 Climbing Atlanta TRACON
Wed 05:49:56 PM 33.7333 -84.4333 90° East 261 300 8,500 -2,350 Descending Atlanta TRACON
Wed 05:50:56 PM 33.7333 -84.3500 90° East 246 283 6,400 -1,750 Descending Atlanta TRACON
Wed 05:51:56 PM 33.7333 -84.2833 90° East 236 272 5,000 -730 Descending Atlanta TRACON
Wed 05:52:51 PM 33.7333 -84.2167 90° East 237 273 5,000  Level Atlanta TRACON
Wed 05:53:51 PM 33.7333 -84.1333 90° East 211 243 5,000  Level Atlanta TRACON
Wed 05:54:56 PM 33.6667 -84.1333 180° South 201 231 5,000 -100 Level Atlanta TRACON
Wed 05:55:51 PM 33.6500 -84.1833 248° West 184 212 4,800 -626 Descending Atlanta TRACON
Wed 05:56:51 PM 33.6500 -84.2333 270° West 176 203 3,800 -1,000 Descending Atlanta TRACON

Login

Don't have an account? Register now (free) for customized features, flight alerts, and more!